الصفحة الرئيسية
METAR-TAF:

METAR-TAF

مطار :

مطار الناظور العروي

الناظور, المغرب

دائرة عرض: 34-59-20N, خط طول: 003-01-42W, ارتفاع: 175 متر

مراقبة الطقس الحالي

تاريخ ووقت الإصدار 1ساعة و 0 دقيقة قبل الساعة 08:00UTC
ريح 2 عقدةمن اتجاهات متغيرة
درجة الحرارة 13°درجة مئوية
الرطوبة 82%
ضغط 1014 hPa
الرؤية 10 كم أو أكثر
الغيوم لا تقل 1500 م ولا وجود لمزنة ركامية السحاب الأسود

METAR: GMMW 040800Z VRB02KT CAVOK 13/10 Q1014 NOSIG

زمن: 10:00 (09:00 UTC)

توقعات

تاريخ ووقت الإصدار 4ساعات و 0 دقيقة قبل الساعة 05:00UTC
التوقعات صالحة من04 الساعة 06 UTC إلى 05 الساعة 12 UTC
ريح 3 عقدة من الغرب/الجنوب الغربي
الرؤية 10 كم أو أكثر
الغيوم لا تقل 1500 م ولا وجود لمزنة ركامية السحاب الأسود

TAF: GMMW 040500Z 0406/0512 25003KT CAVOK

أرصاد الطقس والتوقعات من أكثر من 4000 مطار (تقارير الطقس للمطار METAR والتنبؤ بالطقس بالمطارTAF).

المحطات المتاحة هي النقط الصفراء والحمراء على الخريطة.

حرك المؤشر فوق النقطة لمعرفة اسم المحطة.

ثم انقر لمعرفة أرصاد وتوقعات الطقس.

لتغيير الخارطة: اضغط على الأزرار الخضراء مع رمز الصليب الأسود للتكبير. على الزر الأخضر مع شرطة للتصغير، أو على الأسهم الخضراء للخرائط المجاورة.


METAR-TAF: